Weather reports worldwide

Advertisment
Aonach Mor, United Kingdom (3041): temperature & dewpoint: 06.12.2018 13:00:00 - 12.12.2018 13:00:00 (GMT)Aonach Mor, United Kingdom (3041): wind speed & gusts: 06.12.2018 13:00:00 - 12.12.2018 13:00:00 (GMT)Aonach Mor, United Kingdom (3041): wind direction: 06.12.2018 13:00:00 - 12.12.2018 13:00:00 (GMT)
Date & Time tt [°C] td [°C] ff [km/h] ff [kn] fx [km/h] fx [kn] dd
12.12.2018 13:00:00 0,3 0,2 54 29 74 40 SSE
12.12.2018 12:00:00 0,7 0,6 57 31 74 40 SSE
12.12.2018 11:00:00 0,8 0,7 50 27 78 42 SSE
12.12.2018 10:00:00 0,7 0,5 44 24 70 38 SSE
12.12.2018 09:00:00 0,8 0,7 50 27 68 37 SSE
12.12.2018 08:00:00 0,9 0,7 34 18 61 33 S
12.12.2018 07:00:00 1,3 1,1 35 19 63 34 S
12.12.2018 06:00:00 1,4 1,3 26 14 48 26 SSW
12.12.2018 05:00:00 1,3 1,1 28 15 55 30 S
12.12.2018 04:00:00 1,0 0,9 22 12 48 26 SSE
12.12.2018 03:00:00 1,2 1,0 31 17 48 26 SSE
12.12.2018 02:00:00 1,1 1,0 22 12 61 33 S
12.12.2018 01:00:00 1,2 1,1 35 19 68 37 S
12.12.2018 00:00:00 1,0 0,9 42 23 72 39 SSE
11.12.2018 23:00:00 1,2 1,0 42 23 61 33 S
11.12.2018 22:00:00 0,8 0,7 34 18 65 35 SSE
11.12.2018 21:00:00 0,8 0,6 39 21 65 35 SSE
11.12.2018 20:00:00 1,2 1,1 39 21 81 44 SSE
11.12.2018 19:00:00 2,3 2,0 70 38 81 44 SSE
11.12.2018 18:00:00 2,8 1,5 61 33 74 40 SSE
11.12.2018 17:00:00 4,2 3,6 52 28 61 33 SSE
11.12.2018 16:00:00 3,1 3,1 35 19 54 29 SSE
11.12.2018 15:00:00 3,0 2,7 41 22 48 26 SSE
11.12.2018 14:00:00 6,4 4,5 35 19 - - SSE
11.12.2018 13:00:00 8,2 6,3 22 12 - - S
11.12.2018 12:00:00 6,1 5,1 21 11 - - S
11.12.2018 11:00:00 6,5 5,4 26 14 46 25 SSW
11.12.2018 10:00:00 6,1 5,4 28 15 - - S
11.12.2018 09:00:00 5,4 5,0 22 12 - - S
11.12.2018 08:00:00 5,6 5,3 29 16 - - SSW
11.12.2018 07:00:00 5,5 5,3 28 15 - - SSW
11.12.2018 06:00:00 3,2 3,1 29 16 46 25 S
11.12.2018 05:00:00 3,4 3,3 34 18 54 29 S
11.12.2018 04:00:00 3,4 3,3 35 19 55 30 SSW
11.12.2018 03:00:00 3,0 2,8 39 21 54 29 SSW
11.12.2018 02:00:00 1,5 1,4 34 18 55 30 SSW
11.12.2018 01:00:00 0,8 0,7 35 19 54 29 S
11.12.2018 00:00:00 0,2 0,1 24 13 - - S
10.12.2018 23:00:00 -0,6 -0,7 24 13 - - S
10.12.2018 22:00:00 -1,1 -1,2 22 12 - - S
10.12.2018 21:00:00 -1,0 -1,1 24 13 46 25 S
10.12.2018 20:00:00 -0,9 -0,9 22 12 - - S
10.12.2018 19:00:00 -1,3 -1,4 13 7 - - S
10.12.2018 18:00:00 -1,5 -1,5 11 6 - - S
10.12.2018 17:00:00 -1,7 -1,7 15 8 - - S
10.12.2018 16:00:00 -2,0 -2,0 11 6 - - SSW
10.12.2018 15:00:00 -1,8 -2,0 13 7 - - SW
10.12.2018 14:00:00 -1,8 -1,9 15 8 - - WSW
10.12.2018 13:00:00 -2,2 -2,3 11 6 - - WSW
10.12.2018 12:00:00 -1,7 -1,8 11 6 - - SW
10.12.2018 11:00:00 -3,0 -3,1 4 2 - - SSW
10.12.2018 10:00:00 -5,1 -5,4 4 2 - - NW
10.12.2018 09:00:00 -4,5 -4,8 11 6 - - NNE
10.12.2018 08:00:00 -4,2 -4,4 9 5 - - N
10.12.2018 07:00:00 -3,7 -3,9 11 6 - - NW
10.12.2018 06:00:00 -3,4 -3,6 13 7 - - WNW
10.12.2018 05:00:00 -3,4 -3,6 11 6 - - W
10.12.2018 04:00:00 -3,3 -3,4 9 5 - - W
10.12.2018 03:00:00 -3,3 -3,4 9 5 - - WNW
10.12.2018 02:00:00 -3,4 -3,6 9 5 - - W
10.12.2018 01:00:00 -3,3 -3,5 9 5 - - W
10.12.2018 00:00:00 -2,9 -3,0 13 7 - - W
09.12.2018 23:00:00 -3,3 -3,5 13 7 - - W
09.12.2018 22:00:00 -3,6 -3,8 13 7 - - WNW
09.12.2018 21:00:00 -3,5 -3,7 15 8 - - W
09.12.2018 20:00:00 -2,8 -2,9 16 9 - - W
09.12.2018 19:00:00 -3,1 -3,3 15 8 - - W
09.12.2018 18:00:00 -2,7 -2,8 15 8 - - W
09.12.2018 17:00:00 -2,7 -2,8 13 7 - - W
09.12.2018 16:00:00 -2,5 -2,6 16 9 - - WSW
09.12.2018 15:00:00 -2,5 -2,6 13 7 - - W
09.12.2018 14:00:00 -2,2 -2,4 13 7 - - W
09.12.2018 13:00:00 -2,2 -2,3 11 6 - - WNW
09.12.2018 12:00:00 -2,4 -2,5 16 9 - - WNW
09.12.2018 11:00:00 -2,2 -2,3 15 8 - - WNW
09.12.2018 10:00:00 -2,5 -2,6 15 8 - - WNW
09.12.2018 09:00:00 -3,0 -3,1 16 9 - - NW
09.12.2018 08:00:00 -3,2 -3,3 21 11 - - NNW
09.12.2018 07:00:00 -3,4 -3,5 24 13 - - NNW
09.12.2018 06:00:00 -3,7 -3,9 28 15 - - N
09.12.2018 05:00:00 -2,0 -2,2 24 13 - - N
09.12.2018 04:00:00 -1,8 -1,9 21 11 - - N
09.12.2018 03:00:00 -1,8 -1,9 21 11 - - N
09.12.2018 02:00:00 -1,8 -1,9 22 12 - - N
09.12.2018 01:00:00 -1,6 -1,7 22 12 - - N
09.12.2018 00:00:00 -0,5 -0,5 18 10 - - N
08.12.2018 23:00:00 -0,5 -0,5 11 6 - - NW
08.12.2018 22:00:00 -0,6 -0,6 13 7 - - WNW
08.12.2018 21:00:00 -0,7 -0,7 15 8 - - WNW
08.12.2018 20:00:00 -0,7 -0,7 15 8 - - WNW
08.12.2018 19:00:00 -0,5 -0,5 13 7 - - W
08.12.2018 18:00:00 -0,4 -0,5 11 6 - - W
08.12.2018 17:00:00 -0,4 -0,5 11 6 - - W
08.12.2018 16:00:00 -0,6 -0,7 15 8 - - W
08.12.2018 15:00:00 -0,4 -0,5 24 13 46 25 WSW
08.12.2018 14:00:00 -0,2 -0,3 35 19 52 28 WSW
08.12.2018 13:00:00 0,0 -0,2 39 21 54 29 WSW
08.12.2018 12:00:00 0,1 -0,1 34 18 61 33 WSW
08.12.2018 11:00:00 0,1 0,0 39 21 65 35 WSW
08.12.2018 10:00:00 0,1 0,0 37 20 74 40 WSW
08.12.2018 09:00:00 0,3 0,1 41 22 76 41 WSW
08.12.2018 08:00:00 0,4 0,3 50 27 83 45 WSW
08.12.2018 07:00:00 0,5 0,4 46 25 81 44 WSW
08.12.2018 06:00:00 0,5 0,4 44 24 85 46 WSW
08.12.2018 05:00:00 0,5 0,3 44 24 81 44 WSW
08.12.2018 04:00:00 0,4 0,3 52 28 81 44 WSW
08.12.2018 03:00:00 0,4 0,2 35 19 76 41 WSW
08.12.2018 02:00:00 0,3 0,2 50 27 83 45 WSW
08.12.2018 01:00:00 0,2 0,1 37 20 83 45 WSW
08.12.2018 00:00:00 0,3 - 57 31 87 47 WSW
07.12.2018 23:00:00 0,3 - 54 29 93 50 WSW
07.12.2018 22:00:00 0,6 0,4 68 37 102 55 WSW
07.12.2018 21:00:00 0,1 0,0 74 40 122 66 SW
07.12.2018 20:00:00 0,1 0,0 76 41 133 72 SW
07.12.2018 19:00:00 0,1 0,0 83 45 130 70 WSW
07.12.2018 18:00:00 0,1 0,0 78 42 133 72 SW
07.12.2018 17:00:00 0,1 0,0 74 40 139 75 WSW
07.12.2018 16:00:00 0,1 0,0 76 41 141 76 SW
07.12.2018 15:00:00 -0,4 -0,5 89 48 133 72 SW
07.12.2018 14:00:00 -1,1 -1,2 87 47 139 75 SW
07.12.2018 13:00:00 -1,1 -1,2 89 48 150 81 SW
07.12.2018 12:00:00 -1,6 -1,7 100 54 139 75 SW
07.12.2018 11:00:00 -1,5 -1,6 72 39 135 73 SW
07.12.2018 10:00:00 -1,3 -1,4 63 34 126 68 SSW
07.12.2018 09:00:00 -0,7 -0,8 67 36 128 69 SW
07.12.2018 08:00:00 -0,8 -0,9 83 45 133 72 SSW
07.12.2018 07:00:00 -0,7 -0,9 78 42 143 77 SW
07.12.2018 06:00:00 -0,5 - 76 41 154 83 SW
07.12.2018 05:00:00 0,3 - 98 53 143 77 SSW
07.12.2018 04:00:00 3,3 - 65 35 111 60 SSW
07.12.2018 03:00:00 2,5 - 55 30 102 55 S
07.12.2018 02:00:00 1,8 - 63 34 102 55 SSE
07.12.2018 01:00:00 1,0 - 48 26 76 41 S
07.12.2018 00:00:00 1,1 - 37 20 74 40 SSE
06.12.2018 23:00:00 1,0 - 54 29 85 46 S
06.12.2018 22:00:00 1,4 - 59 32 78 42 SSW
06.12.2018 21:00:00 2,1 - 55 30 87 47 SSW
06.12.2018 20:00:00 1,2 - 59 32 89 48 SW
06.12.2018 19:00:00 0,9 - 37 20 87 47 WSW
06.12.2018 18:00:00 0,5 - 59 32 100 54 WSW
06.12.2018 17:00:00 1,5 - 48 26 83 45 SW
06.12.2018 16:00:00 1,4 - 54 29 91 49 WSW
06.12.2018 15:00:00 1,7 - 46 25 94 51 SW
06.12.2018 14:00:00 1,7 - 61 33 100 54 SW
06.12.2018 13:00:00 2,2 - 48 26 104 56 WSW

tt = temperature
td = dewpoint
ff = wind speed
fx = gusts
dd = wind direction

Next stations